sensor_id;sensor_type;location;lat;lon;timestamp;pressure;altitude;pressure_sealevel;temperature;humidity
48874;BME280;66155;46.204;5.220;2024-01-30T00:00:59;100067.19;;;9.95;61.91
48874;BME280;66155;46.204;5.220;2024-01-30T00:06:00;100055.31;;;9.98;62.31
48874;BME280;66155;46.204;5.220;2024-01-30T00:11:00;100060.06;;;9.98;62.43
48874;BME280;66155;46.204;5.220;2024-01-30T00:16:01;100063.69;;;9.95;63.13
48874;BME280;66155;46.204;5.220;2024-01-30T00:21:01;100070.75;;;9.96;62.13
48874;BME280;66155;46.204;5.220;2024-01-30T00:26:02;100056.13;;;9.95;62.32
48874;BME280;66155;46.204;5.220;2024-01-30T00:31:03;100050.59;;;9.95;62.28
48874;BME280;66155;46.204;5.220;2024-01-30T00:36:03;100065.19;;;9.99;62.11
48874;BME280;66155;46.204;5.220;2024-01-30T00:41:05;100055.72;;;9.97;62.32
48874;BME280;66155;46.204;5.220;2024-01-30T00:46:05;100045.84;;;9.96;62.14
48874;BME280;66155;46.204;5.220;2024-01-30T00:51:05;100051.81;;;9.94;62.82
48874;BME280;66155;46.204;5.220;2024-01-30T00:56:06;100049.06;;;9.94;63.16
48874;BME280;66155;46.204;5.220;2024-01-30T01:01:07;100054.94;;;9.96;62.78
48874;BME280;66155;46.204;5.220;2024-01-30T01:06:07;100061.66;;;9.95;63.72
48874;BME280;66155;46.204;5.220;2024-01-30T01:11:08;100062.88;;;9.94;63.54
48874;BME280;66155;46.204;5.220;2024-01-30T01:16:08;100065.22;;;9.96;63.92
48874;BME280;66155;46.204;5.220;2024-01-30T01:21:09;100055.78;;;9.93;63.39
48874;BME280;66155;46.204;5.220;2024-01-30T01:26:09;100070.34;;;9.97;62.46
48874;BME280;66155;46.204;5.220;2024-01-30T01:31:10;100066.50;;;9.88;64.01
48874;BME280;66155;46.204;5.220;2024-01-30T01:36:10;100070.81;;;9.92;64.13
48874;BME280;66155;46.204;5.220;2024-01-30T01:41:10;100063.72;;;9.88;64.28
48874;BME280;66155;46.204;5.220;2024-01-30T01:46:11;100062.53;;;9.89;64.20
48874;BME280;66155;46.204;5.220;2024-01-30T01:51:11;100067.41;;;9.77;66.84
48874;BME280;66155;46.204;5.220;2024-01-30T01:56:12;100070.19;;;9.77;65.47
48874;BME280;66155;46.204;5.220;2024-01-30T02:01:13;100075.75;;;9.74;66.62
48874;BME280;66155;46.204;5.220;2024-01-30T02:06:14;100078.97;;;9.69;65.56
48874;BME280;66155;46.204;5.220;2024-01-30T02:11:15;100080.19;;;9.64;67.75
48874;BME280;66155;46.204;5.220;2024-01-30T02:16:16;100078.31;;;9.54;67.64
48874;BME280;66155;46.204;5.220;2024-01-30T02:21:20;100086.97;;;9.56;67.36
48874;BME280;66155;46.204;5.220;2024-01-30T02:26:20;100084.66;;;9.51;68.15
48874;BME280;66155;46.204;5.220;2024-01-30T02:31:21;100073.22;;;9.49;67.18
48874;BME280;66155;46.204;5.220;2024-01-30T02:36:21;100072.09;;;9.43;67.37
48874;BME280;66155;46.204;5.220;2024-01-30T02:41:22;100073.69;;;9.41;67.89
48874;BME280;66155;46.204;5.220;2024-01-30T02:46:22;100084.75;;;9.41;69.42
48874;BME280;66155;46.204;5.220;2024-01-30T02:51:22;100083.59;;;9.38;68.11
48874;BME280;66155;46.204;5.220;2024-01-30T02:56:23;100080.44;;;9.36;68.69
48874;BME280;66155;46.204;5.220;2024-01-30T03:01:23;100076.53;;;9.33;69.54
48874;BME280;66155;46.204;5.220;2024-01-30T03:06:24;100072.56;;;9.34;69.29
48874;BME280;66155;46.204;5.220;2024-01-30T03:11:25;100076.09;;;9.35;68.22
48874;BME280;66155;46.204;5.220;2024-01-30T03:16:25;100075.78;;;9.29;69.92
48874;BME280;66155;46.204;5.220;2024-01-30T03:21:26;100088.38;;;9.30;69.99
48874;BME280;66155;46.204;5.220;2024-01-30T03:26:26;100086.41;;;9.31;68.91
48874;BME280;66155;46.204;5.220;2024-01-30T03:31:26;100085.66;;;9.27;69.68
48874;BME280;66155;46.204;5.220;2024-01-30T03:36:27;100093.91;;;9.30;69.22
48874;BME280;66155;46.204;5.220;2024-01-30T03:41:28;100092.78;;;9.24;70.32
48874;BME280;66155;46.204;5.220;2024-01-30T03:46:28;100094.34;;;9.29;68.73
48874;BME280;66155;46.204;5.220;2024-01-30T03:51:29;100080.56;;;9.25;68.26
48874;BME280;66155;46.204;5.220;2024-01-30T03:56:29;100082.94;;;9.23;69.53
48874;BME280;66155;46.204;5.220;2024-01-30T04:01:30;100083.34;;;9.18;70.18
48874;BME280;66155;46.204;5.220;2024-01-30T04:06:30;100096.81;;;9.16;68.53
48874;BME280;66155;46.204;5.220;2024-01-30T04:11:31;100088.16;;;9.11;70.21
48874;BME280;66155;46.204;5.220;2024-01-30T04:16:31;100085.38;;;9.11;69.19
48874;BME280;66155;46.204;5.220;2024-01-30T04:21:32;100089.38;;;9.10;70.10
48874;BME280;66155;46.204;5.220;2024-01-30T04:26:32;100097.22;;;9.11;69.60
48874;BME280;66155;46.204;5.220;2024-01-30T04:31:32;100083.06;;;9.09;69.85
48874;BME280;66155;46.204;5.220;2024-01-30T04:36:33;100090.56;;;9.09;69.58
48874;BME280;66155;46.204;5.220;2024-01-30T04:41:33;100090.53;;;9.12;70.17
48874;BME280;66155;46.204;5.220;2024-01-30T04:46:34;100091.34;;;9.09;69.65
48874;BME280;66155;46.204;5.220;2024-01-30T04:51:34;100096.06;;;9.12;68.94
48874;BME280;66155;46.204;5.220;2024-01-30T04:56:35;100089.38;;;9.10;69.58
48874;BME280;66155;46.204;5.220;2024-01-30T05:01:36;100103.19;;;9.10;70.04
48874;BME280;66155;46.204;5.220;2024-01-30T05:06:36;100101.56;;;9.12;69.29
48874;BME280;66155;46.204;5.220;2024-01-30T05:11:40;100109.44;;;9.17;68.83
48874;BME280;66155;46.204;5.220;2024-01-30T05:16:40;100115.00;;;9.10;69.39
48874;BME280;66155;46.204;5.220;2024-01-30T05:21:41;100123.72;;;9.09;69.08
48874;BME280;66155;46.204;5.220;2024-01-30T05:26:42;100120.56;;;9.07;70.27
48874;BME280;66155;46.204;5.220;2024-01-30T05:31:42;100125.28;;;9.06;69.52
48874;BME280;66155;46.204;5.220;2024-01-30T05:36:43;100133.63;;;9.03;69.37
48874;BME280;66155;46.204;5.220;2024-01-30T05:41:43;100132.81;;;9.02;69.66
48874;BME280;66155;46.204;5.220;2024-01-30T05:46:43;100137.59;;;8.98;69.41
48874;BME280;66155;46.204;5.220;2024-01-30T05:51:44;100138.81;;;8.97;69.38
48874;BME280;66155;46.204;5.220;2024-01-30T05:56:44;100145.88;;;9.02;69.28
48874;BME280;66155;46.204;5.220;2024-01-30T06:01:46;100139.59;;;8.98;69.49
48874;BME280;66155;46.204;5.220;2024-01-30T06:06:47;100141.94;;;8.96;69.32
48874;BME280;66155;46.204;5.220;2024-01-30T06:11:47;100141.59;;;8.94;69.80
48874;BME280;66155;46.204;5.220;2024-01-30T06:16:47;100141.94;;;8.96;69.18
48874;BME280;66155;46.204;5.220;2024-01-30T06:21:48;100141.16;;;8.95;69.36
48874;BME280;66155;46.204;5.220;2024-01-30T06:26:48;100138.41;;;8.95;68.99
48874;BME280;66155;46.204;5.220;2024-01-30T06:31:49;100143.94;;;8.95;68.87
48874;BME280;66155;46.204;5.220;2024-01-30T06:36:49;100137.22;;;8.96;68.89
48874;BME280;66155;46.204;5.220;2024-01-30T06:41:50;100134.81;;;8.98;68.71
48874;BME280;66155;46.204;5.220;2024-01-30T06:46:50;100129.72;;;8.97;68.74
48874;BME280;66155;46.204;5.220;2024-01-30T06:51:50;100132.47;;;8.97;68.19
48874;BME280;66155;46.204;5.220;2024-01-30T06:56:51;100152.56;;;9.04;67.89
48874;BME280;66155;46.204;5.220;2024-01-30T07:01:51;100145.88;;;8.98;68.06
48874;BME280;66155;46.204;5.220;2024-01-30T07:06:52;100142.31;;;9.01;67.66
48874;BME280;66155;46.204;5.220;2024-01-30T07:11:53;100145.91;;;8.95;67.99
48874;BME280;66155;46.204;5.220;2024-01-30T07:16:55;100152.97;;;9.03;67.64
48874;BME280;66155;46.204;5.220;2024-01-30T07:21:56;100157.28;;;9.07;67.40
48874;BME280;66155;46.204;5.220;2024-01-30T07:26:57;100152.16;;;9.09;67.28
48874;BME280;66155;46.204;5.220;2024-01-30T07:31:57;100163.56;;;9.11;66.89
48874;BME280;66155;46.204;5.220;2024-01-30T07:36:57;100169.88;;;9.12;66.72
48874;BME280;66155;46.204;5.220;2024-01-30T07:41:58;100170.25;;;9.17;66.61
48874;BME280;66155;46.204;5.220;2024-01-30T07:46:58;100171.41;;;9.20;66.51
48874;BME280;66155;46.204;5.220;2024-01-30T07:51:59;100177.34;;;9.22;65.79
48874;BME280;66155;46.204;5.220;2024-01-30T07:57:00;100187.91;;;9.30;65.78
48874;BME280;66155;46.204;5.220;2024-01-30T08:02:01;100197.38;;;9.36;65.31
48874;BME280;66155;46.204;5.220;2024-01-30T08:07:02;100196.56;;;9.40;65.38
48874;BME280;66155;46.204;5.220;2024-01-30T08:12:02;100201.69;;;9.41;65.29
48874;BME280;66155;46.204;5.220;2024-01-30T08:17:03;100204.78;;;9.50;65.09
48874;BME280;66155;46.204;5.220;2024-01-30T08:22:03;100213.84;;;9.54;64.86
48874;BME280;66155;46.204;5.220;2024-01-30T08:27:04;100222.84;;;9.65;64.85
48874;BME280;66155;46.204;5.220;2024-01-30T08:32:07;100218.03;;;9.76;64.25
48874;BME280;66155;46.204;5.220;2024-01-30T08:37:08;100226.56;;;9.93;63.91
48874;BME280;66155;46.204;5.220;2024-01-30T08:42:08;100235.16;;;10.05;63.35
48874;BME280;66155;46.204;5.220;2024-01-30T08:47:09;100234.28;;;10.19;63.35
48874;BME280;66155;46.204;5.220;2024-01-30T08:52:10;100238.56;;;10.23;62.29
48874;BME280;66155;46.204;5.220;2024-01-30T08:57:10;100235.06;;;10.19;62.62
48874;BME280;66155;46.204;5.220;2024-01-30T09:02:11;100239.41;;;10.20;63.06
48874;BME280;66155;46.204;5.220;2024-01-30T09:07:13;100243.69;;;10.28;62.82
48874;BME280;66155;46.204;5.220;2024-01-30T09:12:13;100248.38;;;10.35;62.47
48874;BME280;66155;46.204;5.220;2024-01-30T09:17:14;100250.19;;;10.49;62.48
48874;BME280;66155;46.204;5.220;2024-01-30T09:22:15;100240.22;;;10.58;61.09
48874;BME280;66155;46.204;5.220;2024-01-30T09:27:15;100257.13;;;10.67;60.52
48874;BME280;66155;46.204;5.220;2024-01-30T09:32:16;100252.56;;;10.84;61.43
48874;BME280;66155;46.204;5.220;2024-01-30T09:37:17;100254.78;;;10.96;60.91
48874;BME280;66155;46.204;5.220;2024-01-30T09:42:34;100257.13;;;11.01;59.25
48874;BME280;66155;46.204;5.220;2024-01-30T09:47:41;100264.13;;;11.09;59.72
48874;BME280;66155;46.204;5.220;2024-01-30T09:52:44;100248.63;;;11.15;59.62
48874;BME280;66155;46.204;5.220;2024-01-30T09:57:45;100254.47;;;11.21;60.45
48874;BME280;66155;46.204;5.220;2024-01-30T10:02:46;100261.00;;;11.38;59.85
48874;BME280;66155;46.204;5.220;2024-01-30T10:07:53;100257.69;;;11.46;59.72
48874;BME280;66155;46.204;5.220;2024-01-30T10:12:54;100268.97;;;11.62;60.21
48874;BME280;66155;46.204;5.220;2024-01-30T10:17:55;100267.63;;;11.74;58.62
48874;BME280;66155;46.204;5.220;2024-01-30T10:22:56;100273.25;;;11.67;59.97
48874;BME280;66155;46.204;5.220;2024-01-30T10:27:57;100267.94;;;11.80;59.57
48874;BME280;66155;46.204;5.220;2024-01-30T10:32:58;100266.69;;;11.84;59.26
48874;BME280;66155;46.204;5.220;2024-01-30T10:37:58;100258.34;;;11.84;58.87
48874;BME280;66155;46.204;5.220;2024-01-30T10:43:01;100255.63;;;11.81;59.67
48874;BME280;66155;46.204;5.220;2024-01-30T10:48:03;100257.19;;;11.82;59.33
48874;BME280;66155;46.204;5.220;2024-01-30T10:53:05;100257.38;;;11.94;58.29
48874;BME280;66155;46.204;5.220;2024-01-30T10:58:07;100247.97;;;12.11;58.52
48874;BME280;66155;46.204;5.220;2024-01-30T11:03:08;100235.88;;;12.22;58.45
48874;BME280;66155;46.204;5.220;2024-01-30T11:08:13;100234.50;;;12.33;57.26
48874;BME280;66155;46.204;5.220;2024-01-30T11:13:13;100236.75;;;12.19;57.57
48874;BME280;66155;46.204;5.220;2024-01-30T11:18:25;100240.44;;;12.12;57.23
48874;BME280;66155;46.204;5.220;2024-01-30T11:23:26;100241.09;;;12.20;57.93
48874;BME280;66155;46.204;5.220;2024-01-30T11:28:32;100242.84;;;12.33;57.38
48874;BME280;66155;46.204;5.220;2024-01-30T11:33:34;100230.78;;;12.20;57.35
48874;BME280;66155;46.204;5.220;2024-01-30T11:38:35;100228.88;;;12.13;57.60
48874;BME280;66155;46.204;5.220;2024-01-30T11:43:35;100230.53;;;12.11;57.56
48874;BME280;66155;46.204;5.220;2024-01-30T11:48:35;100220.13;;;12.15;57.44
48874;BME280;66155;46.204;5.220;2024-01-30T11:53:36;100226.47;;;12.15;57.23
48874;BME280;66155;46.204;5.220;2024-01-30T11:58:36;100217.84;;;12.10;57.07
48874;BME280;66155;46.204;5.220;2024-01-30T12:03:37;100214.97;;;12.17;57.01
48874;BME280;66155;46.204;5.220;2024-01-30T12:08:37;100207.81;;;12.16;57.50
48874;BME280;66155;46.204;5.220;2024-01-30T12:13:38;100204.78;;;12.30;56.77
48874;BME280;66155;46.204;5.220;2024-01-30T12:18:38;100196.38;;;12.34;57.13
48874;BME280;66155;46.204;5.220;2024-01-30T12:23:39;100193.59;;;12.34;56.81
48874;BME280;66155;46.204;5.220;2024-01-30T12:28:50;100197.69;;;12.49;56.35
48874;BME280;66155;46.204;5.220;2024-01-30T12:33:50;100189.78;;;12.67;57.00
48874;BME280;66155;46.204;5.220;2024-01-30T12:38:51;100177.28;;;12.75;56.33
48874;BME280;66155;46.204;5.220;2024-01-30T12:43:51;100175.44;;;12.88;55.99
48874;BME280;66155;46.204;5.220;2024-01-30T12:48:52;100169.03;;;13.07;56.09
48874;BME280;66155;46.204;5.220;2024-01-30T12:53:52;100155.88;;;13.28;55.10
48874;BME280;66155;46.204;5.220;2024-01-30T12:58:53;100158.25;;;13.29;53.98
48874;BME280;66155;46.204;5.220;2024-01-30T13:03:53;100153.72;;;13.51;55.18
48874;BME280;66155;46.204;5.220;2024-01-30T13:08:54;100159.38;;;13.80;54.89
48874;BME280;66155;46.204;5.220;2024-01-30T13:13:54;100150.63;;;14.11;54.64
48874;BME280;66155;46.204;5.220;2024-01-30T13:18:55;100138.44;;;14.50;54.86
48874;BME280;66155;46.204;5.220;2024-01-30T13:23:55;100137.13;;;14.67;53.28
48874;BME280;66155;46.204;5.220;2024-01-30T13:28:56;100134.41;;;14.92;54.46
48874;BME280;66155;46.204;5.220;2024-01-30T13:33:56;100130.81;;;15.29;53.07
48874;BME280;66155;46.204;5.220;2024-01-30T13:38:57;100140.63;;;15.34;53.16
48874;BME280;66155;46.204;5.220;2024-01-30T13:43:58;100130.13;;;15.13;52.97
48874;BME280;66155;46.204;5.220;2024-01-30T13:48:58;100138.84;;;14.89;52.15
48874;BME280;66155;46.204;5.220;2024-01-30T13:53:58;100152.56;;;14.97;52.55
48874;BME280;66155;46.204;5.220;2024-01-30T13:58:59;100142.75;;;15.05;52.17
48874;BME280;66155;46.204;5.220;2024-01-30T14:04:01;100156.16;;;14.97;51.97
48874;BME280;66155;46.204;5.220;2024-01-30T14:09:02;100149.91;;;15.06;51.54
48874;BME280;66155;46.204;5.220;2024-01-30T14:14:04;100150.56;;;15.10;50.96
48874;BME280;66155;46.204;5.220;2024-01-30T14:19:04;100155.72;;;14.99;49.82
48874;BME280;66155;46.204;5.220;2024-01-30T14:24:05;100168.75;;;14.89;50.63
48874;BME280;66155;46.204;5.220;2024-01-30T14:29:06;100172.88;;;14.97;50.39
48874;BME280;66155;46.204;5.220;2024-01-30T14:34:07;100170.44;;;14.99;50.47
48874;BME280;66155;46.204;5.220;2024-01-30T14:39:08;100167.34;;;15.60;50.16
48874;BME280;66155;46.204;5.220;2024-01-30T14:44:09;100164.78;;;16.69;50.78
48874;BME280;66155;46.204;5.220;2024-01-30T14:49:10;100170.09;;;16.98;49.20
48874;BME280;66155;46.204;5.220;2024-01-30T14:54:11;100175.38;;;17.36;49.91
48874;BME280;66155;46.204;5.220;2024-01-30T14:59:11;100163.28;;;17.97;49.49
48874;BME280;66155;46.204;5.220;2024-01-30T15:04:12;100158.03;;;18.35;48.96
48874;BME280;66155;46.204;5.220;2024-01-30T15:09:12;100150.22;;;18.67;48.24
48874;BME280;66155;46.204;5.220;2024-01-30T15:14:15;100157.97;;;18.81;48.17
48874;BME280;66155;46.204;5.220;2024-01-30T15:19:15;100169.25;;;18.53;47.58
48874;BME280;66155;46.204;5.220;2024-01-30T15:24:15;100168.59;;;18.22;47.79
48874;BME280;66155;46.204;5.220;2024-01-30T15:29:18;100172.34;;;18.46;47.40
48874;BME280;66155;46.204;5.220;2024-01-30T15:34:21;100183.41;;;18.50;47.64
48874;BME280;66155;46.204;5.220;2024-01-30T15:39:21;100182.31;;;18.84;46.55
48874;BME280;66155;46.204;5.220;2024-01-30T15:44:22;100179.94;;;19.00;45.53
48874;BME280;66155;46.204;5.220;2024-01-30T15:49:22;100178.00;;;18.55;45.50
48874;BME280;66155;46.204;5.220;2024-01-30T15:54:23;100186.53;;;18.34;45.42
48874;BME280;66155;46.204;5.220;2024-01-30T15:59:23;100175.91;;;18.01;44.56
48874;BME280;66155;46.204;5.220;2024-01-30T16:04:23;100191.94;;;17.52;44.76
48874;BME280;66155;46.204;5.220;2024-01-30T16:09:25;100194.94;;;16.96;44.88
48874;BME280;66155;46.204;5.220;2024-01-30T16:14:26;100194.38;;;16.57;45.14
48874;BME280;66155;46.204;5.220;2024-01-30T16:19:26;100195.28;;;16.20;45.81
48874;BME280;66155;46.204;5.220;2024-01-30T16:24:27;100202.19;;;15.81;45.80
48874;BME280;66155;46.204;5.220;2024-01-30T16:29:27;100208.78;;;15.36;46.39
48874;BME280;66155;46.204;5.220;2024-01-30T16:34:28;100201.72;;;15.07;46.41
48874;BME280;66155;46.204;5.220;2024-01-30T16:39:28;100202.94;;;14.64;46.89
48874;BME280;66155;46.204;5.220;2024-01-30T16:44:28;100208.88;;;14.21;47.59
48874;BME280;66155;46.204;5.220;2024-01-30T16:49:29;100208.72;;;13.96;47.66
48874;BME280;66155;46.204;5.220;2024-01-30T16:54:29;100217.25;;;13.73;48.06
48874;BME280;66155;46.204;5.220;2024-01-30T16:59:30;100218.19;;;13.50;48.18
48874;BME280;66155;46.204;5.220;2024-01-30T17:04:30;100234.00;;;13.37;48.65
48874;BME280;66155;46.204;5.220;2024-01-30T17:09:33;100239.16;;;13.19;48.67
48874;BME280;66155;46.204;5.220;2024-01-30T17:14:33;100236.75;;;13.01;49.08
48874;BME280;66155;46.204;5.220;2024-01-30T17:19:38;100241.81;;;12.86;49.52
48874;BME280;66155;46.204;5.220;2024-01-30T17:24:38;100243.69;;;12.73;49.49
48874;BME280;66155;46.204;5.220;2024-01-30T17:29:39;100240.75;;;12.60;49.95
48874;BME280;66155;46.204;5.220;2024-01-30T17:34:40;100253.53;;;12.54;49.91
48874;BME280;66155;46.204;5.220;2024-01-30T17:39:40;100248.69;;;12.39;50.37
48874;BME280;66155;46.204;5.220;2024-01-30T17:44:41;100259.56;;;12.30;50.37
48874;BME280;66155;46.204;5.220;2024-01-30T17:49:42;100255.41;;;12.18;50.46
48874;BME280;66155;46.204;5.220;2024-01-30T17:54:43;100269.00;;;12.12;50.64
48874;BME280;66155;46.204;5.220;2024-01-30T17:59:44;100272.25;;;12.07;50.59
48874;BME280;66155;46.204;5.220;2024-01-30T18:04:44;100266.44;;;11.98;50.89
48874;BME280;66155;46.204;5.220;2024-01-30T18:09:44;100269.69;;;11.93;50.78
48874;BME280;66155;46.204;5.220;2024-01-30T18:14:45;100257.56;;;11.84;51.36
48874;BME280;66155;46.204;5.220;2024-01-30T18:19:45;100265.28;;;11.73;51.62
48874;BME280;66155;46.204;5.220;2024-01-30T18:24:46;100265.72;;;11.67;51.64
48874;BME280;66155;46.204;5.220;2024-01-30T18:29:46;100271.38;;;11.60;51.53
48874;BME280;66155;46.204;5.220;2024-01-30T18:34:48;100273.84;;;11.55;51.75
48874;BME280;66155;46.204;5.220;2024-01-30T18:39:48;100276.34;;;11.46;51.99
48874;BME280;66155;46.204;5.220;2024-01-30T18:44:49;100275.25;;;11.40;51.94
48874;BME280;66155;46.204;5.220;2024-01-30T18:49:49;100277.28;;;11.36;52.15
48874;BME280;66155;46.204;5.220;2024-01-30T18:54:51;100283.34;;;11.27;52.30
48874;BME280;66155;46.204;5.220;2024-01-30T18:59:52;100281.47;;;11.17;52.95
48874;BME280;66155;46.204;5.220;2024-01-30T19:04:52;100286.31;;;11.09;53.49
48874;BME280;66155;46.204;5.220;2024-01-30T19:09:53;100292.75;;;11.03;53.91
48874;BME280;66155;46.204;5.220;2024-01-30T19:14:53;100289.22;;;10.99;53.65
48874;BME280;66155;46.204;5.220;2024-01-30T19:19:54;100296.81;;;10.95;53.09
48874;BME280;66155;46.204;5.220;2024-01-30T19:24:54;100296.47;;;10.89;53.60
48874;BME280;66155;46.204;5.220;2024-01-30T19:29:54;100291.41;;;10.81;54.40
48874;BME280;66155;46.204;5.220;2024-01-30T19:34:55;100289.88;;;10.76;54.39
48874;BME280;66155;46.204;5.220;2024-01-30T19:39:56;100287.97;;;10.69;55.04
48874;BME280;66155;46.204;5.220;2024-01-30T19:44:56;100302.22;;;10.68;55.17
48874;BME280;66155;46.204;5.220;2024-01-30T19:49:57;100309.00;;;10.67;55.38
48874;BME280;66155;46.204;5.220;2024-01-30T19:54:57;100315.31;;;10.67;54.94
48874;BME280;66155;46.204;5.220;2024-01-30T19:59:58;100316.97;;;10.61;55.28
48874;BME280;66155;46.204;5.220;2024-01-30T20:04:58;100317.00;;;10.58;55.60
48874;BME280;66155;46.204;5.220;2024-01-30T20:09:59;100315.84;;;10.52;55.63
48874;BME280;66155;46.204;5.220;2024-01-30T20:14:59;100324.94;;;10.52;54.84
48874;BME280;66155;46.204;5.220;2024-01-30T20:20:01;100337.63;;;10.53;54.67
48874;BME280;66155;46.204;5.220;2024-01-30T20:25:03;100326.94;;;10.52;54.99
48874;BME280;66155;46.204;5.220;2024-01-30T20:30:04;100327.75;;;10.49;54.75
48874;BME280;66155;46.204;5.220;2024-01-30T20:35:05;100333.34;;;10.45;54.84
48874;BME280;66155;46.204;5.220;2024-01-30T20:40:07;100327.03;;;10.41;54.84
48874;BME280;66155;46.204;5.220;2024-01-30T20:45:08;100335.38;;;10.38;55.42
48874;BME280;66155;46.204;5.220;2024-01-30T20:50:09;100335.50;;;10.27;55.91
48874;BME280;66155;46.204;5.220;2024-01-30T20:55:10;100330.81;;;10.13;56.60
48874;BME280;66155;46.204;5.220;2024-01-30T21:00:11;100324.13;;;10.07;56.94
48874;BME280;66155;46.204;5.220;2024-01-30T21:05:13;100332.88;;;10.02;56.54
48874;BME280;66155;46.204;5.220;2024-01-30T21:10:13;100338.84;;;9.97;56.93
48874;BME280;66155;46.204;5.220;2024-01-30T21:15:14;100344.78;;;9.92;57.40
48874;BME280;66155;46.204;5.220;2024-01-30T21:20:14;100340.09;;;9.86;57.01
48874;BME280;66155;46.204;5.220;2024-01-30T21:25:15;100340.53;;;9.80;57.36
48874;BME280;66155;46.204;5.220;2024-01-30T21:30:15;100338.56;;;9.77;56.72
48874;BME280;66155;46.204;5.220;2024-01-30T21:35:16;100338.59;;;9.74;57.06
48874;BME280;66155;46.204;5.220;2024-01-30T21:40:16;100328.41;;;9.60;58.40
48874;BME280;66155;46.204;5.220;2024-01-30T21:45:18;100347.78;;;9.57;57.89
48874;BME280;66155;46.204;5.220;2024-01-30T21:50:20;100346.63;;;9.54;57.99
48874;BME280;66155;46.204;5.220;2024-01-30T21:55:21;100339.09;;;9.51;58.12
48874;BME280;66155;46.204;5.220;2024-01-30T22:00:21;100348.22;;;9.48;58.10
48874;BME280;66155;46.204;5.220;2024-01-30T22:05:22;100354.56;;;9.45;58.74
48874;BME280;66155;46.204;5.220;2024-01-30T22:10:22;100350.63;;;9.46;58.52
48874;BME280;66155;46.204;5.220;2024-01-30T22:15:22;100353.78;;;9.45;58.81
48874;BME280;66155;46.204;5.220;2024-01-30T22:20:23;100347.06;;;9.38;58.29
48874;BME280;66155;46.204;5.220;2024-01-30T22:25:23;100351.44;;;9.32;58.72
48874;BME280;66155;46.204;5.220;2024-01-30T22:30:24;100355.81;;;9.30;58.45
48874;BME280;66155;46.204;5.220;2024-01-30T22:35:24;100353.81;;;9.34;58.10
48874;BME280;66155;46.204;5.220;2024-01-30T22:40:25;100365.25;;;9.36;57.77
48874;BME280;66155;46.204;5.220;2024-01-30T22:45:25;100344.34;;;9.31;57.83
48874;BME280;66155;46.204;5.220;2024-01-30T22:50:25;100360.16;;;9.27;58.37
48874;BME280;66155;46.204;5.220;2024-01-30T22:55:26;100364.94;;;9.20;58.59
48874;BME280;66155;46.204;5.220;2024-01-30T23:00:26;100357.44;;;9.17;58.35
48874;BME280;66155;46.204;5.220;2024-01-30T23:05:28;100352.72;;;9.10;58.64
48874;BME280;66155;46.204;5.220;2024-01-30T23:10:30;100360.63;;;9.08;58.29
48874;BME280;66155;46.204;5.220;2024-01-30T23:15:30;100355.50;;;9.03;58.52
48874;BME280;66155;46.204;5.220;2024-01-30T23:20:31;100352.38;;;8.98;58.52
48874;BME280;66155;46.204;5.220;2024-01-30T23:25:32;100365.00;;;8.95;58.62
48874;BME280;66155;46.204;5.220;2024-01-30T23:30:32;100358.69;;;8.87;58.42
48874;BME280;66155;46.204;5.220;2024-01-30T23:35:33;100371.75;;;8.83;58.76
48874;BME280;66155;46.204;5.220;2024-01-30T23:40:33;100369.38;;;8.75;59.33
48874;BME280;66155;46.204;5.220;2024-01-30T23:45:34;100370.56;;;8.70;59.93
48874;BME280;66155;46.204;5.220;2024-01-30T23:50:34;100367.03;;;8.66;60.04
48874;BME280;66155;46.204;5.220;2024-01-30T23:55:35;100361.91;;;8.61;60.04
